sensor_id;sensor_type;location;lat;lon;timestamp;temperature;humidity
15922;DHT22;8060;50.948;3.146;2022-08-18T05:40:01;17.80;99.90
15922;DHT22;8060;50.948;3.146;2022-08-18T05:42:38;17.80;99.90
15922;DHT22;8060;50.948;3.146;2022-08-18T05:45:14;17.90;99.90
15922;DHT22;8060;50.948;3.146;2022-08-18T05:47:43;18.00;99.90
15922;DHT22;8060;50.948;3.146;2022-08-18T05:50:15;18.10;99.90
15922;DHT22;8060;50.948;3.146;2022-08-18T05:52:49;18.20;99.90
15922;DHT22;8060;50.948;3.146;2022-08-18T05:55:25;18.30;99.90
15922;DHT22;8060;50.948;3.146;2022-08-18T05:58:18;18.40;99.90
15922;DHT22;8060;50.948;3.146;2022-08-18T06:01:02;18.50;99.90
15922;DHT22;8060;50.948;3.146;2022-08-18T06:03:34;18.60;99.90
15922;DHT22;8060;50.948;3.146;2022-08-18T06:06:15;18.70;99.90
15922;DHT22;8060;50.948;3.146;2022-08-18T06:08:49;18.80;99.90
15922;DHT22;8060;50.948;3.146;2022-08-18T06:11:20;18.90;99.90
15922;DHT22;8060;50.948;3.146;2022-08-18T06:13:50;19.00;99.90
15922;DHT22;8060;50.948;3.146;2022-08-18T06:16:41;19.00;99.90
15922;DHT22;8060;50.948;3.146;2022-08-18T06:19:27;19.10;99.90
15922;DHT22;8060;50.948;3.146;2022-08-18T06:22:04;19.20;99.90
15922;DHT22;8060;50.948;3.146;2022-08-18T06:24:37;19.30;99.90
15922;DHT22;8060;50.948;3.146;2022-08-18T06:27:16;19.40;99.90
15922;DHT22;8060;50.948;3.146;2022-08-18T06:29:57;19.50;99.90
15922;DHT22;8060;50.948;3.146;2022-08-18T06:32:55;19.60;99.90
15922;DHT22;8060;50.948;3.146;2022-08-18T06:35:34;19.70;99.90
15922;DHT22;8060;50.948;3.146;2022-08-18T06:38:14;19.80;99.90
15922;DHT22;8060;50.948;3.146;2022-08-18T06:41:08;20.00;99.90
15922;DHT22;8060;50.948;3.146;2022-08-18T06:44:07;20.10;99.90
15922;DHT22;8060;50.948;3.146;2022-08-18T06:46:43;20.20;99.90
15922;DHT22;8060;50.948;3.146;2022-08-18T06:49:20;20.30;99.90
15922;DHT22;8060;50.948;3.146;2022-08-18T06:51:48;20.40;99.90
15922;DHT22;8060;50.948;3.146;2022-08-18T06:54:28;20.50;99.90
15922;DHT22;8060;50.948;3.146;2022-08-18T06:56:57;20.60;99.90
15922;DHT22;8060;50.948;3.146;2022-08-18T06:59:28;20.70;99.90
15922;DHT22;8060;50.948;3.146;2022-08-18T07:02:00;20.80;99.90
15922;DHT22;8060;50.948;3.146;2022-08-18T07:04:35;20.90;99.90
15922;DHT22;8060;50.948;3.146;2022-08-18T07:07:19;21.00;99.90
15922;DHT22;8060;50.948;3.146;2022-08-18T07:10:29;21.10;99.90
15922;DHT22;8060;50.948;3.146;2022-08-18T07:13:06;21.30;99.90
15922;DHT22;8060;50.948;3.146;2022-08-18T07:15:35;21.30;99.90
15922;DHT22;8060;50.948;3.146;2022-08-18T07:18:06;21.40;99.90
15922;DHT22;8060;50.948;3.146;2022-08-18T07:20:42;21.50;99.90
15922;DHT22;8060;50.948;3.146;2022-08-18T07:23:22;21.70;99.90
15922;DHT22;8060;50.948;3.146;2022-08-18T07:25:59;21.80;99.90
15922;DHT22;8060;50.948;3.146;2022-08-18T07:28:29;21.80;99.90
15922;DHT22;8060;50.948;3.146;2022-08-18T07:31:31;21.80;99.90
15922;DHT22;8060;50.948;3.146;2022-08-18T07:34:11;22.00;99.90
15922;DHT22;8060;50.948;3.146;2022-08-18T07:36:45;22.10;99.90
15922;DHT22;8060;50.948;3.146;2022-08-18T07:39:21;22.20;99.90
15922;DHT22;8060;50.948;3.146;2022-08-18T07:41:54;22.30;99.90
15922;DHT22;8060;50.948;3.146;2022-08-18T07:44:31;22.40;99.90
15922;DHT22;8060;50.948;3.146;2022-08-18T07:47:05;22.40;99.90
15922;DHT22;8060;50.948;3.146;2022-08-18T07:49:40;22.40;99.90
15922;DHT22;8060;50.948;3.146;2022-08-18T07:52:31;22.30;99.90
15922;DHT22;8060;50.948;3.146;2022-08-18T07:55:22;22.20;99.90
15922;DHT22;8060;50.948;3.146;2022-08-18T07:57:58;22.10;99.90
15922;DHT22;8060;50.948;3.146;2022-08-18T08:00:31;22.10;99.90
15922;DHT22;8060;50.948;3.146;2022-08-18T08:03:30;22.10;99.90
15922;DHT22;8060;50.948;3.146;2022-08-18T08:06:07;22.00;99.90
15922;DHT22;8060;50.948;3.146;2022-08-18T08:08:42;22.00;99.90
15922;DHT22;8060;50.948;3.146;2022-08-18T08:11:19;21.90;99.90
15922;DHT22;8060;50.948;3.146;2022-08-18T08:14:00;21.80;99.90
15922;DHT22;8060;50.948;3.146;2022-08-18T08:16:41;21.80;99.90
15922;DHT22;8060;50.948;3.146;2022-08-18T08:19:28;21.80;99.90
15922;DHT22;8060;50.948;3.146;2022-08-18T08:22:27;21.80;99.90
15922;DHT22;8060;50.948;3.146;2022-08-18T08:25:03;21.80;99.90
15922;DHT22;8060;50.948;3.146;2022-08-18T08:28:07;21.90;99.90
15922;DHT22;8060;50.948;3.146;2022-08-18T08:30:44;22.00;99.90
15922;DHT22;8060;50.948;3.146;2022-08-18T08:33:22;22.10;99.90
15922;DHT22;8060;50.948;3.146;2022-08-18T08:35:57;22.20;99.90
15922;DHT22;8060;50.948;3.146;2022-08-18T08:38:37;22.20;99.90
15922;DHT22;8060;50.948;3.146;2022-08-18T08:41:12;22.40;99.90
15922;DHT22;8060;50.948;3.146;2022-08-18T08:44:00;22.40;99.90
15922;DHT22;8060;50.948;3.146;2022-08-18T08:46:34;22.60;99.90
15922;DHT22;8060;50.948;3.146;2022-08-18T08:49:08;22.70;99.90
15922;DHT22;8060;50.948;3.146;2022-08-18T08:51:43;23.00;99.90
15922;DHT22;8060;50.948;3.146;2022-08-18T08:54:18;23.10;99.90
15922;DHT22;8060;50.948;3.146;2022-08-18T08:56:51;23.40;99.90
15922;DHT22;8060;50.948;3.146;2022-08-18T08:59:21;23.60;99.90
15922;DHT22;8060;50.948;3.146;2022-08-18T09:02:02;23.80;99.90
15922;DHT22;8060;50.948;3.146;2022-08-18T09:04:53;23.90;99.90
15922;DHT22;8060;50.948;3.146;2022-08-18T09:07:56;24.30;99.90
15922;DHT22;8060;50.948;3.146;2022-08-18T09:10:49;24.40;99.90
15922;DHT22;8060;50.948;3.146;2022-08-18T09:13:35;24.30;99.90
15922;DHT22;8060;50.948;3.146;2022-08-18T09:16:25;24.10;99.90
15922;DHT22;8060;50.948;3.146;2022-08-18T09:19:14;23.90;99.90
15922;DHT22;8060;50.948;3.146;2022-08-18T09:21:54;24.00;99.90
15922;DHT22;8060;50.948;3.146;2022-08-18T09:24:29;24.10;99.90
15922;DHT22;8060;50.948;3.146;2022-08-18T09:27:13;24.30;99.90
15922;DHT22;8060;50.948;3.146;2022-08-18T09:29:49;24.10;99.90
15922;DHT22;8060;50.948;3.146;2022-08-18T09:32:42;24.00;99.90
15922;DHT22;8060;50.948;3.146;2022-08-18T09:35:40;24.20;99.90
15922;DHT22;8060;50.948;3.146;2022-08-18T09:38:19;24.30;99.90
15922;DHT22;8060;50.948;3.146;2022-08-18T09:41:16;24.50;99.90
15922;DHT22;8060;50.948;3.146;2022-08-18T09:44:03;24.70;99.90
15922;DHT22;8060;50.948;3.146;2022-08-18T09:46:59;24.80;99.90
15922;DHT22;8060;50.948;3.146;2022-08-18T09:49:46;24.90;99.90
15922;DHT22;8060;50.948;3.146;2022-08-18T09:52:46;24.90;99.90
15922;DHT22;8060;50.948;3.146;2022-08-18T09:55:36;24.70;99.90
15922;DHT22;8060;50.948;3.146;2022-08-18T09:58:50;24.60;99.90
15922;DHT22;8060;50.948;3.146;2022-08-18T10:01:26;24.50;99.90
15922;DHT22;8060;50.948;3.146;2022-08-18T10:04:28;24.30;99.90
15922;DHT22;8060;50.948;3.146;2022-08-18T10:07:19;24.00;99.90
15922;DHT22;8060;50.948;3.146;2022-08-18T10:10:03;23.90;99.90
15922;DHT22;8060;50.948;3.146;2022-08-18T10:13:11;23.80;99.90
15922;DHT22;8060;50.948;3.146;2022-08-18T10:15:51;23.80;99.90
15922;DHT22;8060;50.948;3.146;2022-08-18T10:18:56;23.80;99.90
15922;DHT22;8060;50.948;3.146;2022-08-18T10:21:28;23.90;99.90
15922;DHT22;8060;50.948;3.146;2022-08-18T10:24:13;24.20;99.90
15922;DHT22;8060;50.948;3.146;2022-08-18T10:27:05;24.70;99.90
15922;DHT22;8060;50.948;3.146;2022-08-18T10:29:52;25.20;99.90
15922;DHT22;8060;50.948;3.146;2022-08-18T10:32:40;25.80;99.90
15922;DHT22;8060;50.948;3.146;2022-08-18T10:38:24;27.00;99.90
15922;DHT22;8060;50.948;3.146;2022-08-18T10:40:59;27.40;99.90
15922;DHT22;8060;50.948;3.146;2022-08-18T10:43:43;27.50;99.90
15922;DHT22;8060;50.948;3.146;2022-08-18T10:46:25;27.40;99.90
15922;DHT22;8060;50.948;3.146;2022-08-18T10:49:22;27.40;99.90
15922;DHT22;8060;50.948;3.146;2022-08-18T10:52:06;27.30;99.90
15922;DHT22;8060;50.948;3.146;2022-08-18T10:57:51;26.90;99.90
15922;DHT22;8060;50.948;3.146;2022-08-18T11:00:28;26.60;99.90
15922;DHT22;8060;50.948;3.146;2022-08-18T11:03:12;26.90;99.90
15922;DHT22;8060;50.948;3.146;2022-08-18T11:06:06;27.20;99.90
15922;DHT22;8060;50.948;3.146;2022-08-18T11:08:47;27.20;99.90
15922;DHT22;8060;50.948;3.146;2022-08-18T11:11:23;26.80;99.90
15922;DHT22;8060;50.948;3.146;2022-08-18T11:14:17;26.50;99.90
15922;DHT22;8060;50.948;3.146;2022-08-18T11:16:58;26.30;99.90
15922;DHT22;8060;50.948;3.146;2022-08-18T11:19:36;26.30;99.90
15922;DHT22;8060;50.948;3.146;2022-08-18T11:22:22;26.10;99.90
15922;DHT22;8060;50.948;3.146;2022-08-18T11:24:59;26.00;99.90
15922;DHT22;8060;50.948;3.146;2022-08-18T11:27:48;26.10;99.90
15922;DHT22;8060;50.948;3.146;2022-08-18T11:30:19;26.70;99.90
15922;DHT22;8060;50.948;3.146;2022-08-18T11:32:57;27.40;99.90
15922;DHT22;8060;50.948;3.146;2022-08-18T11:35:30;28.00;99.90
15922;DHT22;8060;50.948;3.146;2022-08-18T11:38:02;28.20;99.90
15922;DHT22;8060;50.948;3.146;2022-08-18T11:40:39;28.10;99.90
15922;DHT22;8060;50.948;3.146;2022-08-18T11:43:30;28.10;99.90
15922;DHT22;8060;50.948;3.146;2022-08-18T11:46:12;28.00;99.90
15922;DHT22;8060;50.948;3.146;2022-08-18T11:48:50;27.70;99.90
15922;DHT22;8060;50.948;3.146;2022-08-18T11:51:21;27.30;99.90
15922;DHT22;8060;50.948;3.146;2022-08-18T11:53:56;27.10;99.90
15922;DHT22;8060;50.948;3.146;2022-08-18T11:56:45;27.00;99.90
15922;DHT22;8060;50.948;3.146;2022-08-18T11:59:31;27.20;99.90
15922;DHT22;8060;50.948;3.146;2022-08-18T12:02:23;27.90;99.90
15922;DHT22;8060;50.948;3.146;2022-08-18T12:04:53;28.40;99.90
15922;DHT22;8060;50.948;3.146;2022-08-18T12:07:31;28.90;99.90
15922;DHT22;8060;50.948;3.146;2022-08-18T12:10:18;29.40;99.90
15922;DHT22;8060;50.948;3.146;2022-08-18T12:12:55;29.90;99.90
15922;DHT22;8060;50.948;3.146;2022-08-18T12:15:29;30.60;99.90
15922;DHT22;8060;50.948;3.146;2022-08-18T12:18:18;31.10;99.90
15922;DHT22;8060;50.948;3.146;2022-08-18T12:20:55;31.50;99.90
15922;DHT22;8060;50.948;3.146;2022-08-18T12:23:24;31.80;99.90
15922;DHT22;8060;50.948;3.146;2022-08-18T12:26:11;31.90;99.90
15922;DHT22;8060;50.948;3.146;2022-08-18T12:28:59;31.90;99.90
15922;DHT22;8060;50.948;3.146;2022-08-18T12:31:28;31.40;99.90
15922;DHT22;8060;50.948;3.146;2022-08-18T12:34:17;30.80;99.90
15922;DHT22;8060;50.948;3.146;2022-08-18T12:36:54;30.70;99.90
15922;DHT22;8060;50.948;3.146;2022-08-18T12:39:23;30.60;99.90
15922;DHT22;8060;50.948;3.146;2022-08-18T12:41:53;30.70;99.90
15922;DHT22;8060;50.948;3.146;2022-08-18T12:44:25;30.50;99.90
15922;DHT22;8060;50.948;3.146;2022-08-18T12:46:53;30.20;99.90
15922;DHT22;8060;50.948;3.146;2022-08-18T12:49:25;29.60;99.90
15922;DHT22;8060;50.948;3.146;2022-08-18T12:51:55;29.30;99.90
15922;DHT22;8060;50.948;3.146;2022-08-18T12:54:24;29.00;99.90
15922;DHT22;8060;50.948;3.146;2022-08-18T12:56:55;28.80;99.90
15922;DHT22;8060;50.948;3.146;2022-08-18T12:59:26;28.80;99.90
15922;DHT22;8060;50.948;3.146;2022-08-18T13:02:03;29.10;99.90
15922;DHT22;8060;50.948;3.146;2022-08-18T13:04:31;28.90;99.90
15922;DHT22;8060;50.948;3.146;2022-08-18T13:07:00;28.80;99.90
15922;DHT22;8060;50.948;3.146;2022-08-18T13:09:33;28.80;99.90
15922;DHT22;8060;50.948;3.146;2022-08-18T13:12:21;28.80;99.90
15922;DHT22;8060;50.948;3.146;2022-08-18T13:14:53;28.80;99.90
15922;DHT22;8060;50.948;3.146;2022-08-18T13:17:23;28.70;99.90
15922;DHT22;8060;50.948;3.146;2022-08-18T13:20:01;28.60;99.90
15922;DHT22;8060;50.948;3.146;2022-08-18T13:22:30;28.60;99.90
15922;DHT22;8060;50.948;3.146;2022-08-18T13:25:00;28.50;99.90
15922;DHT22;8060;50.948;3.146;2022-08-18T13:27:31;28.40;99.90
15922;DHT22;8060;50.948;3.146;2022-08-18T13:30:05;28.30;99.90
15922;DHT22;8060;50.948;3.146;2022-08-18T13:32:54;28.20;99.90
15922;DHT22;8060;50.948;3.146;2022-08-18T13:35:26;28.00;99.90
15922;DHT22;8060;50.948;3.146;2022-08-18T13:38:02;28.00;99.90
15922;DHT22;8060;50.948;3.146;2022-08-18T13:40:43;27.90;99.90
15922;DHT22;8060;50.948;3.146;2022-08-18T13:43:14;27.90;99.90
15922;DHT22;8060;50.948;3.146;2022-08-18T13:45:44;27.80;99.90
15922;DHT22;8060;50.948;3.146;2022-08-18T13:48:21;27.80;99.90
15922;DHT22;8060;50.948;3.146;2022-08-18T13:50:51;27.90;99.90
15922;DHT22;8060;50.948;3.146;2022-08-18T13:53:22;28.00;99.90
15922;DHT22;8060;50.948;3.146;2022-08-18T13:55:53;28.10;99.90
15922;DHT22;8060;50.948;3.146;2022-08-18T13:58:27;28.20;99.90
15922;DHT22;8060;50.948;3.146;2022-08-18T14:00:57;28.30;99.90
15922;DHT22;8060;50.948;3.146;2022-08-18T14:03:46;28.20;99.90
15922;DHT22;8060;50.948;3.146;2022-08-18T14:06:16;27.90;99.90
15922;DHT22;8060;50.948;3.146;2022-08-18T14:08:50;27.60;99.90
15922;DHT22;8060;50.948;3.146;2022-08-18T14:11:19;27.60;99.90
15922;DHT22;8060;50.948;3.146;2022-08-18T14:13:55;27.50;99.90
15922;DHT22;8060;50.948;3.146;2022-08-18T14:16:24;27.40;99.90
15922;DHT22;8060;50.948;3.146;2022-08-18T14:18:53;27.40;99.90
15922;DHT22;8060;50.948;3.146;2022-08-18T14:21:41;27.40;99.90
15922;DHT22;8060;50.948;3.146;2022-08-18T14:24:28;27.50;99.90
15922;DHT22;8060;50.948;3.146;2022-08-18T14:27:15;27.30;99.90
15922;DHT22;8060;50.948;3.146;2022-08-18T14:29:45;27.40;99.90
15922;DHT22;8060;50.948;3.146;2022-08-18T14:32:19;27.50;99.90
15922;DHT22;8060;50.948;3.146;2022-08-18T14:34:56;27.60;99.90
15922;DHT22;8060;50.948;3.146;2022-08-18T14:37:38;27.60;99.90
15922;DHT22;8060;50.948;3.146;2022-08-18T14:40:08;27.70;99.90
15922;DHT22;8060;50.948;3.146;2022-08-18T14:42:38;27.70;99.90
15922;DHT22;8060;50.948;3.146;2022-08-18T14:45:23;27.70;99.90
15922;DHT22;8060;50.948;3.146;2022-08-18T14:48:00;27.60;99.90
15922;DHT22;8060;50.948;3.146;2022-08-18T14:50:33;27.60;99.90
15922;DHT22;8060;50.948;3.146;2022-08-18T14:53:02;27.50;99.90
15922;DHT22;8060;50.948;3.146;2022-08-18T14:55:31;27.60;99.90
15922;DHT22;8060;50.948;3.146;2022-08-18T14:57:59;27.80;99.90
15922;DHT22;8060;50.948;3.146;2022-08-18T15:00:29;27.90;99.90
15922;DHT22;8060;50.948;3.146;2022-08-18T15:02:57;28.10;99.90
15922;DHT22;8060;50.948;3.146;2022-08-18T15:05:27;28.10;99.90
15922;DHT22;8060;50.948;3.146;2022-08-18T15:08:00;28.20;99.90
15922;DHT22;8060;50.948;3.146;2022-08-18T15:10:31;28.20;99.90
15922;DHT22;8060;50.948;3.146;2022-08-18T15:12:59;28.40;99.90
15922;DHT22;8060;50.948;3.146;2022-08-18T15:15:30;28.30;99.90
15922;DHT22;8060;50.948;3.146;2022-08-18T15:18:17;28.30;99.90
15922;DHT22;8060;50.948;3.146;2022-08-18T15:20:49;28.10;99.90
15922;DHT22;8060;50.948;3.146;2022-08-18T15:23:45;28.00;99.90
15922;DHT22;8060;50.948;3.146;2022-08-18T15:26:46;28.00;99.90
15922;DHT22;8060;50.948;3.146;2022-08-18T15:29:24;27.80;99.90
15922;DHT22;8060;50.948;3.146;2022-08-18T15:31:57;27.80;99.90
15922;DHT22;8060;50.948;3.146;2022-08-18T15:34:32;27.90;99.90
15922;DHT22;8060;50.948;3.146;2022-08-18T15:37:13;27.80;99.90
15922;DHT22;8060;50.948;3.146;2022-08-18T15:39:46;27.80;99.90
15922;DHT22;8060;50.948;3.146;2022-08-18T15:42:22;27.80;99.90
15922;DHT22;8060;50.948;3.146;2022-08-18T15:44:50;27.70;99.90
15922;DHT22;8060;50.948;3.146;2022-08-18T15:47:21;27.60;99.90
15922;DHT22;8060;50.948;3.146;2022-08-18T15:49:51;27.60;99.90
15922;DHT22;8060;50.948;3.146;2022-08-18T15:52:21;27.40;99.90
15922;DHT22;8060;50.948;3.146;2022-08-18T15:54:52;27.50;99.90
15922;DHT22;8060;50.948;3.146;2022-08-18T15:57:28;27.60;99.90
15922;DHT22;8060;50.948;3.146;2022-08-18T16:00:07;27.70;99.90
15922;DHT22;8060;50.948;3.146;2022-08-18T16:02:40;27.70;99.90
15922;DHT22;8060;50.948;3.146;2022-08-18T16:05:15;27.80;99.90
15922;DHT22;8060;50.948;3.146;2022-08-18T16:07:43;27.70;99.90
15922;DHT22;8060;50.948;3.146;2022-08-18T16:10:14;27.80;99.90
15922;DHT22;8060;50.948;3.146;2022-08-18T16:12:43;27.70;99.90
15922;DHT22;8060;50.948;3.146;2022-08-18T16:15:12;27.70;99.90
15922;DHT22;8060;50.948;3.146;2022-08-18T16:17:47;27.70;99.90
15922;DHT22;8060;50.948;3.146;2022-08-18T16:20:15;27.80;99.90
15922;DHT22;8060;50.948;3.146;2022-08-18T16:22:44;27.80;99.90
15922;DHT22;8060;50.948;3.146;2022-08-18T16:25:13;27.80;99.90
15922;DHT22;8060;50.948;3.146;2022-08-18T16:27:42;27.80;99.90
15922;DHT22;8060;50.948;3.146;2022-08-18T16:30:14;27.80;99.90
15922;DHT22;8060;50.948;3.146;2022-08-18T16:32:43;27.70;99.90
15922;DHT22;8060;50.948;3.146;2022-08-18T16:35:13;27.60;99.90
15922;DHT22;8060;50.948;3.146;2022-08-18T16:37:41;27.70;99.90
15922;DHT22;8060;50.948;3.146;2022-08-18T16:40:11;27.70;99.90
15922;DHT22;8060;50.948;3.146;2022-08-18T16:42:39;27.70;99.90
15922;DHT22;8060;50.948;3.146;2022-08-18T16:45:09;27.70;99.90
15922;DHT22;8060;50.948;3.146;2022-08-18T16:47:39;27.80;99.90
15922;DHT22;8060;50.948;3.146;2022-08-18T16:50:10;27.90;99.90
15922;DHT22;8060;50.948;3.146;2022-08-18T16:52:40;27.70;99.90
15922;DHT22;8060;50.948;3.146;2022-08-18T16:55:10;27.70;99.90
15922;DHT22;8060;50.948;3.146;2022-08-18T16:57:39;27.70;99.90
15922;DHT22;8060;50.948;3.146;2022-08-18T17:00:26;27.70;99.90
15922;DHT22;8060;50.948;3.146;2022-08-18T17:03:20;27.70;99.90
15922;DHT22;8060;50.948;3.146;2022-08-18T17:06:08;27.70;99.90
15922;DHT22;8060;50.948;3.146;2022-08-18T17:08:42;27.60;99.90
15922;DHT22;8060;50.948;3.146;2022-08-18T17:11:12;27.60;99.90
15922;DHT22;8060;50.948;3.146;2022-08-18T17:13:41;27.60;99.90
15922;DHT22;8060;50.948;3.146;2022-08-18T17:16:10;27.60;99.90
15922;DHT22;8060;50.948;3.146;2022-08-18T17:18:39;27.40;99.90
15922;DHT22;8060;50.948;3.146;2022-08-18T17:21:09;27.30;99.90
15922;DHT22;8060;50.948;3.146;2022-08-18T17:23:38;27.10;99.90
15922;DHT22;8060;50.948;3.146;2022-08-18T17:26:13;27.00;99.90
15922;DHT22;8060;50.948;3.146;2022-08-18T17:28:46;27.00;99.90
15922;DHT22;8060;50.948;3.146;2022-08-18T17:31:19;26.90;99.90
15922;DHT22;8060;50.948;3.146;2022-08-18T17:33:48;26.90;99.90
15922;DHT22;8060;50.948;3.146;2022-08-18T17:36:21;26.90;99.90
15922;DHT22;8060;50.948;3.146;2022-08-18T17:38:54;26.80;99.90
15922;DHT22;8060;50.948;3.146;2022-08-18T17:41:27;26.70;99.90
15922;DHT22;8060;50.948;3.146;2022-08-18T17:43:57;26.50;99.90
15922;DHT22;8060;50.948;3.146;2022-08-18T17:46:36;26.40;99.90
15922;DHT22;8060;50.948;3.146;2022-08-18T17:49:09;26.40;99.90
15922;DHT22;8060;50.948;3.146;2022-08-18T17:51:41;26.30;99.90
15922;DHT22;8060;50.948;3.146;2022-08-18T17:54:16;26.20;99.90
15922;DHT22;8060;50.948;3.146;2022-08-18T17:56:49;26.10;99.90
15922;DHT22;8060;50.948;3.146;2022-08-18T17:59:23;25.90;99.90
15922;DHT22;8060;50.948;3.146;2022-08-18T18:02:16;25.90;99.90
15922;DHT22;8060;50.948;3.146;2022-08-18T18:04:57;25.80;99.90
15922;DHT22;8060;50.948;3.146;2022-08-18T18:07:27;25.70;99.90
15922;DHT22;8060;50.948;3.146;2022-08-18T18:09:59;25.60;99.90
15922;DHT22;8060;50.948;3.146;2022-08-18T18:12:31;25.50;99.90
15922;DHT22;8060;50.948;3.146;2022-08-18T18:15:03;25.40;99.90
15922;DHT22;8060;50.948;3.146;2022-08-18T18:17:34;25.40;99.90
15922;DHT22;8060;50.948;3.146;2022-08-18T18:20:14;25.30;99.90
15922;DHT22;8060;50.948;3.146;2022-08-18T18:22:43;25.20;99.90
15922;DHT22;8060;50.948;3.146;2022-08-18T18:25:28;25.10;99.90
15922;DHT22;8060;50.948;3.146;2022-08-18T18:28:02;25.10;99.90
15922;DHT22;8060;50.948;3.146;2022-08-18T18:30:30;25.10;99.90
15922;DHT22;8060;50.948;3.146;2022-08-18T18:33:03;24.90;99.90
15922;DHT22;8060;50.948;3.146;2022-08-18T18:35:48;24.90;99.90
15922;DHT22;8060;50.948;3.146;2022-08-18T18:38:26;24.90;99.90
15922;DHT22;8060;50.948;3.146;2022-08-18T18:40:57;24.90;99.90
15922;DHT22;8060;50.948;3.146;2022-08-18T18:43:34;24.90;99.90
15922;DHT22;8060;50.948;3.146;2022-08-18T18:46:26;24.90;99.90
15922;DHT22;8060;50.948;3.146;2022-08-18T18:49:05;24.90;99.90
15922;DHT22;8060;50.948;3.146;2022-08-18T18:51:41;24.80;99.90
15922;DHT22;8060;50.948;3.146;2022-08-18T18:54:25;24.80;99.90
15922;DHT22;8060;50.948;3.146;2022-08-18T18:56:58;24.70;99.90
15922;DHT22;8060;50.948;3.146;2022-08-18T18:59:40;24.60;99.90
15922;DHT22;8060;50.948;3.146;2022-08-18T19:02:27;24.60;99.90
15922;DHT22;8060;50.948;3.146;2022-08-18T19:05:08;24.50;99.90
15922;DHT22;8060;50.948;3.146;2022-08-18T19:07:52;24.40;99.90
15922;DHT22;8060;50.948;3.146;2022-08-18T19:10:31;24.30;99.90
15922;DHT22;8060;50.948;3.146;2022-08-18T19:13:04;24.30;99.90
15922;DHT22;8060;50.948;3.146;2022-08-18T19:15:38;24.30;99.90
15922;DHT22;8060;50.948;3.146;2022-08-18T19:18:22;24.20;99.90
15922;DHT22;8060;50.948;3.146;2022-08-18T19:20:53;24.10;99.90
15922;DHT22;8060;50.948;3.146;2022-08-18T19:23:47;24.00;99.90
15922;DHT22;8060;50.948;3.146;2022-08-18T19:26:21;23.90;99.90
15922;DHT22;8060;50.948;3.146;2022-08-18T19:28:55;23.90;99.90
15922;DHT22;8060;50.948;3.146;2022-08-18T19:31:47;23.80;99.90
15922;DHT22;8060;50.948;3.146;2022-08-18T19:34:24;23.90;99.90
15922;DHT22;8060;50.948;3.146;2022-08-18T19:37:00;23.80;99.90
15922;DHT22;8060;50.948;3.146;2022-08-18T19:39:34;23.80;99.90
15922;DHT22;8060;50.948;3.146;2022-08-18T19:42:07;23.70;99.90
15922;DHT22;8060;50.948;3.146;2022-08-18T19:44:41;23.70;99.90
15922;DHT22;8060;50.948;3.146;2022-08-18T19:47:37;23.70;99.90
15922;DHT22;8060;50.948;3.146;2022-08-18T19:50:15;23.70;99.90
15922;DHT22;8060;50.948;3.146;2022-08-18T19:52:55;23.60;99.90
15922;DHT22;8060;50.948;3.146;2022-08-18T19:55:39;23.60;99.90
15922;DHT22;8060;50.948;3.146;2022-08-18T19:58:36;23.50;99.90
15922;DHT22;8060;50.948;3.146;2022-08-18T20:01:37;23.40;99.90
15922;DHT22;8060;50.948;3.146;2022-08-18T20:04:20;23.30;99.90
15922;DHT22;8060;50.948;3.146;2022-08-18T20:07:24;23.20;99.90
15922;DHT22;8060;50.948;3.146;2022-08-18T20:10:07;23.10;99.90
15922;DHT22;8060;50.948;3.146;2022-08-18T20:12:51;23.00;99.90
15922;DHT22;8060;50.948;3.146;2022-08-18T20:15:25;23.10;99.90
15922;DHT22;8060;50.948;3.146;2022-08-18T20:18:02;23.20;99.90
15922;DHT22;8060;50.948;3.146;2022-08-18T20:20:34;23.10;99.90
15922;DHT22;8060;50.948;3.146;2022-08-18T20:23:28;23.10;99.90
15922;DHT22;8060;50.948;3.146;2022-08-18T20:25:56;23.00;99.90
15922;DHT22;8060;50.948;3.146;2022-08-18T20:28:34;23.10;99.90
15922;DHT22;8060;50.948;3.146;2022-08-18T20:31:07;23.00;99.90
15922;DHT22;8060;50.948;3.146;2022-08-18T20:33:40;23.00;99.90
15922;DHT22;8060;50.948;3.146;2022-08-18T20:36:22;23.00;99.90
15922;DHT22;8060;50.948;3.146;2022-08-18T20:38:53;22.90;99.90
15922;DHT22;8060;50.948;3.146;2022-08-18T20:41:31;22.90;99.90
15922;DHT22;8060;50.948;3.146;2022-08-18T20:50:20;22.80;99.90
15922;DHT22;8060;50.948;3.146;2022-08-18T20:53:07;22.70;99.90
15922;DHT22;8060;50.948;3.146;2022-08-18T20:55:47;22.60;99.90
15922;DHT22;8060;50.948;3.146;2022-08-18T20:58:22;22.60;99.90
15922;DHT22;8060;50.948;3.146;2022-08-18T21:00:54;22.60;99.90
15922;DHT22;8060;50.948;3.146;2022-08-18T21:03:34;22.50;99.90
15922;DHT22;8060;50.948;3.146;2022-08-18T21:06:03;22.50;99.90
15922;DHT22;8060;50.948;3.146;2022-08-18T21:08:35;22.40;99.90
15922;DHT22;8060;50.948;3.146;2022-08-18T21:11:07;22.40;99.90
15922;DHT22;8060;50.948;3.146;2022-08-18T21:13:46;22.40;99.90
15922;DHT22;8060;50.948;3.146;2022-08-18T21:16:34;22.40;99.90
15922;DHT22;8060;50.948;3.146;2022-08-18T21:19:07;22.40;99.90
15922;DHT22;8060;50.948;3.146;2022-08-18T21:21:43;22.40;99.90
15922;DHT22;8060;50.948;3.146;2022-08-18T21:24:25;22.40;99.90
15922;DHT22;8060;50.948;3.146;2022-08-18T21:26:56;22.40;99.90
15922;DHT22;8060;50.948;3.146;2022-08-18T21:29:25;22.40;99.90
15922;DHT22;8060;50.948;3.146;2022-08-18T21:32:17;22.30;99.90
15922;DHT22;8060;50.948;3.146;2022-08-18T21:34:46;22.30;99.90
15922;DHT22;8060;50.948;3.146;2022-08-18T21:37:15;22.20;99.90
15922;DHT22;8060;50.948;3.146;2022-08-18T21:39:53;22.10;99.90
15922;DHT22;8060;50.948;3.146;2022-08-18T21:42:26;22.10;99.90
15922;DHT22;8060;50.948;3.146;2022-08-18T21:44:56;22.00;99.90
15922;DHT22;8060;50.948;3.146;2022-08-18T21:47:29;22.00;99.90
15922;DHT22;8060;50.948;3.146;2022-08-18T21:50:01;22.00;99.90
15922;DHT22;8060;50.948;3.146;2022-08-18T21:52:35;22.00;99.90
15922;DHT22;8060;50.948;3.146;2022-08-18T21:55:09;21.90;99.90
15922;DHT22;8060;50.948;3.146;2022-08-18T21:57:50;21.90;99.90
15922;DHT22;8060;50.948;3.146;2022-08-18T22:00:27;21.80;99.90
15922;DHT22;8060;50.948;3.146;2022-08-18T22:03:13;21.80;99.90
15922;DHT22;8060;50.948;3.146;2022-08-18T22:05:45;21.70;99.90
15922;DHT22;8060;50.948;3.146;2022-08-18T22:08:27;21.60;99.90
15922;DHT22;8060;50.948;3.146;2022-08-18T22:11:26;21.60;99.90
